Kugler, Minnesota
Current Conditions -  °F | °C
As of 2:55 AM on Wednesday 28 Jan 2015 (Local Time) from KCQM Reporting Station
Overcast Overcast  
Wind Chill: 17°   Ceiling: 1100
Heat Index: 25°   Visibility: 10mi
Dew Point: 23°   Wind: 7mph
Humidity: 93%   Direction: 160°SSE
Pressure: 30"   Gusts: NA
Location:  47.7992°N, 92.3042°W
Report Text: KCQM 280855Z AUTO 16006KT 10SM OVC011 M04/M05 A3000 RMK AO2
Loading
Personal Weather Stations






























Interactive Weather Map New forecast layout! Learn more

10-Day Weather Forecast

Advertisements
Track Severe Weather on mobile